x

Lake Winnipeg Narrows (45145) Wave Buoy

1:00pm - Tue 26th Jul 2016 All times are UTC.

  • Sig Wave height 1.6ft
  • Peak Period 3s
  • Wind
    13mph, 16mph gusts
  • Sea Temp 70°f
  • Air Temp 68°f
  • Sea Pressure 1015.6mb

More Historic Weather Station data

Upgrade to MSW Pro to gain access to the past 30 days of data for over 8000 Wavebouys and Weather Stations around the globe.

Join Pro

Comparision Forecast

View Surf forecast
   
Tue 07/26 1:00pm 1.6ft 3s 13 16 mph 1015.6mb 70f 68f
12:00pm 1ft 2s 16 18 mph 1015.3mb 70f 69f
11:00am 1ft 2s 11 13 mph 1015mb 70f 68f
10:00am 1ft 2s 13 18 mph 1014.7mb 70f 69f
9:00am 0.7ft 2s 11 13 mph 1014.4mb 70f 69f
8:00am 0.7ft 3s 9 11 mph 1014.3mb 70f 70f
7:00am 0.7ft 3s 9 11 mph 1014mb 70f 69f
6:00am 0.7ft 3s 4
mph
1013.9mb 70f 70f
5:00am 1ft 3s 2 4 mph 1013.9mb 70f 71f
4:00am 1ft 3s 4 7 mph 1013.6mb 71f 71f
3:00am 1.3ft 3s 7 9 mph 1013.1mb 71f 72f
2:00am 1.3ft 3s 9 11 mph 1012.5mb 71f 72f
1:00am 1ft 3s 13 16 mph 1012.2mb 71f 73f
12:00am 1ft 2s 13
mph
1011.7mb 71f 74f
Mon 07/25 11:00pm 0.3ft 2s 13 16 mph 1011.6mb 72f 74f
10:00pm 0.3ft 2s 2 4 mph 1011.7mb 72f 73f
9:00pm 0.7ft 3s 11 20 mph 1011.7mb 71f 66f
8:00pm 0.7ft 2s 9 11 mph 1010.9mb 71f 74f
7:00pm 0.7ft 2s 11 13 mph 1011.2mb 71f 74f
6:00pm 0.7ft 3s 11 13 mph 1011.4mb 71f 74f
5:00pm 1ft 2s 11
mph
1011.5mb 70f 72f
4:00pm 1ft 2s 13 16 mph 1011.6mb 70f 71f
3:00pm 1ft 3s 11 13 mph 1011.9mb 70f 69f
2:00pm 1ft 2s 13 16 mph 1012mb 69f 69f
1:00pm 1ft 2s 13 18 mph 1011.8mb 69f 68f
12:00pm 1ft 3s 11 13 mph 1011.6mb 69f 68f
11:00am 1ft 3s 13 16 mph 1011.5mb 69f 67f
10:00am 0.7ft 2s 11 13 mph 1011.4mb 69f 68f
9:00am 0.7ft 2s 11 13 mph 1011.3mb 69f 68f
8:00am 0.7ft 2s 9 11 mph 1011.4mb 69f 69f
7:00am 0.7ft 2s 11 13 mph 1011.4mb 69f 68f
6:00am 0.7ft 2s 9
mph
1011.4mb 69f 69f
5:00am 0.7ft 3s 9 11 mph 1011.4mb 69f 69f
4:00am 1ft 4s 9 11 mph 1011.4mb 69f 69f
3:00am 1.3ft 4s 7 9 mph 1011mb 69f 69f
2:00am 1.6ft 4s 9 11 mph 1010.6mb 69f 68f
1:00am 2ft 4s 13 16 mph 1010.6mb 69f 68f
12:00am 2.5ft 4s 16 18 mph 1010.3mb 69f 68f
Sun 07/24 11:00pm 2.5ft 4s 18 22 mph 1010.2mb 69f 68f
10:00pm 3ft 4s 18 22 mph 1009.6mb 69f 67f
9:00pm 3.5ft 5s 20 25 mph 1009.1mb 69f 66f
8:00pm 3.5ft 4s 25 31 mph 1008.2mb 69f 66f
7:00pm 4ft 5s 27 31 mph 1007.5mb 69f 65f
6:00pm 4ft 4s 27 31 mph 1006.7mb 69f 65f
5:00pm 3.5ft 5s 27 31 mph 1005.9mb 69f 64f
4:00pm 3.5ft 4s 27 31 mph 1004.8mb 69f 66f
3:00pm 3.5ft 4s 27 31 mph 1004.1mb 69f 66f
2:00pm 2.5ft 4s 25 31 mph 1003.1mb 70f 66f
1:00pm 2.5ft 3s 22 27 mph 1002.5mb 70f 66f
12:00pm 3ft 4s 20 25 mph 1002.3mb 70f 66f
11:00am 3.5ft 4s 25 29 mph 1001.9mb 70f 66f
10:00am 2ft 3s 25 31 mph 1001.2mb 70f 66f
9:00am 1.6ft 3s 18 22 mph 1001.1mb 70f 65f
8:00am 1.3ft 3s 16 20 mph 1001.7mb 70f 65f
7:00am 1.3ft 3s 16 20 mph 1001.6mb 70f 65f
6:00am 1ft 3s 16 22 mph 1001.3mb 70f 66f
5:00am 1ft 2s 16 20 mph 1000.4mb 70f 68f
4:00am 1ft 2s 16 20 mph 1001.1mb 70f 69f
3:00am 1ft 3s 13 16 mph 1002.6mb 70f 68f
2:00am 1.3ft 3s 13 16 mph 1003.3mb 70f 65f
1:00am 1.6ft 3s 13 18 mph 1003.7mb 70f 67f
12:00am 1.6ft 3s 20 25 mph 1004.5mb 70f 68f
Sat 07/23 11:00pm 1.6ft 3s 18 20 mph 1005.7mb 70f 68f
10:00pm 2ft 3s 20 25 mph 1006.4mb 70f 68f
9:00pm 2ft 3s 20 22 mph 1006.9mb 70f 68f
8:00pm 2.5ft 3s 20 25 mph 1007.5mb 70f 67f
7:00pm 1.6ft 3s 20 22 mph 1009.3mb 70f 69f
6:00pm 1.3ft 3s 18 20 mph 1009.3mb 70f 70f
5:00pm 1.3ft 3s 13 18 mph 1010.4mb 70f 70f
4:00pm 1.3ft 3s 18 20 mph 1011.2mb 70f 70f
3:00pm 1.3ft 3s 16 18 mph 1011.6mb 70f 69f
2:00pm 1.3ft 2s 18 22 mph 1011.8mb 70f 68f
1:00pm 1.3ft 2s 13 18 mph 1012.2mb 70f 67f
12:00pm 1.3ft 3s 18 20 mph 1011.4mb 70f 67f
11:00am 1ft 2s 16 20 mph 1012.6mb 70f 67f
10:00am 0.7ft 2s 13 18 mph 1013.3mb 70f 67f
9:00am 0.3ft 4s 9 11 mph 1014.6mb 70f 69f
8:00am 0.3ft 4s 7 9 mph 1014.3mb 70f 69f
7:00am 0.3ft 4s 4
mph
1014.9mb 70f 69f
6:00am 0.3ft 2s 7
mph
1015.7mb 70f 70f
5:00am 0.3ft 2s 2
mph
1016mb 70f 69f
4:00am 0.7ft 3s 2
mph
1015.5mb 70f 70f
3:00am 0.7ft 3s 4
mph
1014.7mb 70f 70f
2:00am 1ft 3s 9 11 mph 1014.4mb 70f 70f
1:00am 1ft 3s 7 9 mph 1014.9mb 70f 70f
12:00am 1.3ft 4s 9 11 mph 1015.4mb 70f 70f
Fri 07/22 11:00pm 1.6ft 3s 13 16 mph 1015.6mb 70f 70f
10:00pm 1.6ft 3s 13 18 mph 1015.9mb 70f 70f
9:00pm 1.3ft 4s 13 16 mph 1016mb 70f 69f
7:00pm 2ft 4s 13
mph
1016.1mb 70f 68f
6:00pm 2ft 4s 18 20 mph 1015.8mb 70f 68f
5:00pm 2ft 4s 16 20 mph 1015.3mb 69f 68f
4:00pm 2.5ft 4s 18 20 mph 1014.4mb 69f 68f
3:00pm 2ft 3s 20 25 mph 1013.8mb 69f 68f